Time;durP1;ratioP1;P1;durP2;ratioP2;P2;SDS_P1;SDS_P2;PMS_P1;PMS_P2;Temp;Humidity;BMP_temperature;BMP_pressure;BME280_temperature;BME280_humidity;BME280_pressure;Samples;Min_cycle;Max_cycle;Signal;HPM_P1;HPM_P2
2023/01/29 00:02:17;;;;;;;6.85;4.88;;;1.90;99.90;;;;;;5013469;28;20033;-51
2023/01/29 00:04:43;;;;;;;7.82;5.22;;;1.80;99.90;;;;;;4996095;28;20041;-51
2023/01/29 00:07:08;;;;;;;6.32;4.75;;;1.80;99.90;;;;;;5013786;28;20057;-55
2023/01/29 00:09:34;;;;;;;5.15;4.63;;;1.80;99.90;;;;;;5013832;28;20524;-50
2023/01/29 00:11:59;;;;;;;6.82;5.28;;;1.80;99.90;;;;;;5012512;28;20057;-48
2023/01/29 00:14:26;;;;;;;6.22;5.45;;;1.80;99.90;;;;;;4996083;28;20028;-54
2023/01/29 00:16:52;;;;;;;10.43;5.25;;;1.80;99.90;;;;;;5038814;23;20496;-49
2023/01/29 00:19:18;;;;;;;5.82;5.25;;;1.80;99.90;;;;;;5049721;28;20033;-49
2023/01/29 00:21:43;;;;;;;11.23;6.22;;;1.80;99.90;;;;;;5052768;28;20107;-48
2023/01/29 00:24:09;;;;;;;45.17;25.70;;;1.90;99.90;;;;;;5052998;28;20464;-47
2023/01/29 00:26:36;;;;;;;19.92;10.60;;;1.90;99.90;;;;;;5053322;28;20572;-47
2023/01/29 00:29:02;;;;;;;7.80;5.97;;;1.90;99.90;;;;;;5034945;28;20021;-47
2023/01/29 00:31:27;;;;;;;8.55;6.03;;;1.90;99.90;;;;;;5052832;28;20056;-47
2023/01/29 00:33:53;;;;;;;9.30;6.10;;;1.80;99.90;;;;;;5052573;28;20033;-47
2023/01/29 00:36:20;;;;;;;8.50;5.88;;;1.90;99.90;;;;;;5052506;28;20221;-51
2023/01/29 00:38:53;;;;;;;6.25;5.68;;;1.90;99.90;;;;;;5052559;28;20476;-47
2023/01/29 00:46:48;;;;;;;8.18;6.65;;;1.90;99.90;;;;;;5052854;28;20113;-52
2023/01/29 00:49:14;;;;;;;8.73;5.78;;;1.80;99.90;;;;;;5052372;28;20115;-49
2023/01/29 00:51:39;;;;;;;8.82;5.35;;;1.80;99.90;;;;;;5034284;28;20025;-48
2023/01/29 00:54:05;;;;;;;9.73;6.65;;;1.80;99.90;;;;;;5052419;28;20021;-49
2023/01/29 00:56:35;;;;;;;9.00;7.00;;;1.80;99.90;;;;;;5034584;28;20024;-50
2023/01/29 00:59:02;;;;;;;11.38;5.88;;;1.80;99.90;;;;;;5034465;28;20059;-47
2023/01/29 01:04:12;;;;;;;7.40;5.93;;;1.70;99.90;;;;;;5052444;28;20120;-49
2023/01/29 01:06:39;;;;;;;11.38;6.90;;;1.70;99.90;;;;;;5052478;28;20039;-48
2023/01/29 01:11:50;;;;;;;6.45;5.85;;;1.80;99.90;;;;;;5052350;28;20028;-48
2023/01/29 01:14:16;;;;;;;6.65;6.05;;;1.80;99.90;;;;;;5052202;28;20021;-48
2023/01/29 01:16:43;;;;;;;15.45;6.88;;;1.80;99.90;;;;;;5052551;28;20074;-50
2023/01/29 01:19:09;;;;;;;6.68;5.93;;;1.80;99.90;;;;;;5052051;28;20037;-47
2023/01/29 01:21:35;;;;;;;10.55;6.38;;;1.80;99.90;;;;;;5051794;28;20040;-49
2023/01/29 01:24:00;;;;;;;9.07;6.05;;;1.80;99.90;;;;;;5033968;28;20025;-50
2023/01/29 01:26:26;;;;;;;8.43;5.40;;;1.70;99.90;;;;;;5052420;28;20025;-49
2023/01/29 01:28:52;;;;;;;6.25;5.60;;;1.80;99.90;;;;;;5052135;28;20028;-49
2023/01/29 01:31:17;;;;;;;11.73;6.07;;;1.80;99.90;;;;;;5051999;28;20018;-47
2023/01/29 01:33:43;;;;;;;7.43;6.15;;;1.70;99.90;;;;;;5051886;28;20548;-49
2023/01/29 01:36:08;;;;;;;6.60;5.68;;;1.70;99.90;;;;;;5052030;28;20025;-47
2023/01/29 01:38:43;;;;;;;11.15;6.18;;;1.90;99.90;;;;;;5051780;28;20025;-49
2023/01/29 01:41:12;;;;;;;6.40;5.80;;;1.80;99.90;;;;;;5051530;28;20080;-48
2023/01/29 01:44:01;;;;;;;6.55;5.50;;;1.70;99.90;;;;;;5051303;28;20047;-51
2023/01/29 01:46:36;;;;;;;6.78;5.80;;;1.60;99.90;;;;;;5051443;28;20025;-53
2023/01/29 01:49:17;;;;;;;7.05;6.25;;;1.70;99.90;;;;;;5051106;28;20071;-48
2023/01/29 01:51:47;;;;;;;6.32;5.72;;;1.60;99.90;;;;;;5051295;28;20104;-48
2023/01/29 01:54:22;;;;;;;10.88;5.85;;;1.60;99.90;;;;;;5051519;28;20029;-47
2023/01/29 01:56:54;;;;;;;7.68;5.25;;;1.60;99.90;;;;;;5051748;28;20040;-49
2023/01/29 01:59:21;;;;;;;8.20;5.53;;;1.60;99.90;;;;;;5051426;28;20075;-47
2023/01/29 02:01:50;;;;;;;6.90;6.20;;;1.60;99.90;;;;;;5051228;28;20495;-49
2023/01/29 02:10:45;;;;;;;9.18;6.05;;;1.60;99.90;;;;;;5007922;28;20040;-49
2023/01/29 02:13:14;;;;;;;5.63;5.13;;;1.60;99.90;;;;;;5032968;28;20392;-47
2023/01/29 02:15:45;;;;;;;9.27;6.28;;;1.50;99.90;;;;;;5052042;28;20404;-49
2023/01/29 02:18:39;;;;;;;7.03;5.95;;;1.40;99.90;;;;;;5050803;28;20345;-49
2023/01/29 02:21:39;;;;;;;6.97;5.82;;;1.40;99.90;;;;;;5032010;28;20029;-48
2023/01/29 02:24:29;;;;;;;6.22;5.63;;;1.30;99.90;;;;;;5050998;28;20028;-46
2023/01/29 02:27:03;;;;;;;6.38;4.97;;;1.20;99.90;;;;;;5051247;28;20021;-47
2023/01/29 02:29:44;;;;;;;6.53;5.95;;;1.30;99.90;;;;;;5051311;28;20044;-45
2023/01/29 02:32:29;;;;;;;8.95;5.60;;;1.40;99.90;;;;;;5050852;28;20027;-50
2023/01/29 02:35:30;;;;;;;6.97;6.27;;;1.50;99.90;;;;;;5035978;28;20044;-45
2023/01/29 02:38:19;;;;;;;8.60;5.93;;;1.60;99.90;;;;;;5054902;28;20017;-45
2023/01/29 02:40:52;;;;;;;9.65;6.78;;;1.70;99.90;;;;;;5041509;28;20033;-48
2023/01/29 02:43:40;;;;;;;6.50;5.90;;;1.70;99.90;;;;;;5054892;28;20032;-44
2023/01/29 02:46:15;;;;;;;6.82;5.47;;;1.70;99.90;;;;;;5054951;28;20017;-45
2023/01/29 02:48:54;;;;;;;;;;;1.70;99.90;;;;;;5055281;28;20063;-46
2023/01/29 02:51:35;;;;;;;8.00;7.10;;;1.70;99.90;;;;;;5054230;28;19916;-45
2023/01/29 02:54:15;;;;;;;6.82;5.20;;;1.70;99.90;;;;;;5054639;28;20070;-46
2023/01/29 02:56:50;;;;;;;6.95;5.65;;;1.70;99.90;;;;;;5036840;28;20102;-45
2023/01/29 02:59:23;;;;;;;9.13;5.30;;;1.70;99.90;;;;;;5054829;28;20025;-46
2023/01/29 03:02:01;;;;;;;8.52;6.60;;;1.70;99.90;;;;;;5054780;28;20033;-47
2023/01/29 03:04:31;;;;;;;7.55;5.50;;;1.80;99.90;;;;;;5054611;28;20036;-45
2023/01/29 03:07:05;;;;;;;9.45;5.90;;;1.80;99.90;;;;;;5054672;28;20261;-46
2023/01/29 03:09:40;;;;;;;6.63;5.90;;;1.80;99.90;;;;;;5054949;28;20082;-46
2023/01/29 03:12:32;;;;;;;7.93;5.90;;;1.80;99.90;;;;;;5054264;28;20021;-46
2023/01/29 03:15:14;;;;;;;7.90;6.35;;;1.70;99.90;;;;;;5054062;28;20024;-48
2023/01/29 03:18:03;;;;;;;8.27;6.20;;;1.70;99.90;;;;;;5054285;28;20131;-46
2023/01/29 03:20:34;;;;;;;8.13;6.40;;;1.70;99.90;;;;;;5036411;28;20108;-45
2023/01/29 03:23:05;;;;;;;5.95;4.97;;;1.70;99.90;;;;;;5035871;28;20033;-46
2023/01/29 03:34:17;;;;;;;4.90;4.40;;;1.60;99.90;;;;;;5053955;28;20031;-48
2023/01/29 03:36:59;;;;;;;6.35;4.63;;;1.60;99.90;;;;;;5054013;28;20096;-48
2023/01/29 03:39:27;;;;;;;5.80;5.30;;;1.70;99.90;;;;;;5053906;28;20103;-46
2023/01/29 03:42:03;;;;;;;6.57;5.28;;;1.70;99.90;;;;;;5053802;28;20021;-47
2023/01/29 03:44:41;;;;;;;7.15;4.85;;;1.70;99.90;;;;;;5053750;28;20037;-45
2023/01/29 03:47:21;;;;;;;6.22;5.68;;;1.70;99.90;;;;;;5054004;28;20021;-46
2023/01/29 03:49:59;;;;;;;5.65;5.00;;;1.80;99.90;;;;;;5053373;28;20442;-49
2023/01/29 03:52:46;;;;;;;10.20;5.05;;;1.70;99.90;;;;;;5053510;28;20454;-46
2023/01/29 03:55:18;;;;;;;5.72;5.20;;;1.80;99.90;;;;;;5035648;28;20021;-46
2023/01/29 03:57:50;;;;;;;5.82;5.32;;;1.70;99.90;;;;;;5053658;28;20035;-49
2023/01/29 04:00:21;;;;;;;5.88;5.38;;;1.70;99.90;;;;;;5054239;28;20021;-47
2023/01/29 04:03:08;;;;;;;5.40;4.90;;;1.70;99.90;;;;;;5053419;28;20032;-45
2023/01/29 04:05:42;;;;;;;6.97;5.30;;;1.60;99.90;;;;;;5053551;28;20033;-46
2023/01/29 04:08:15;;;;;;;6.18;5.32;;;1.70;99.90;;;;;;5053621;28;20506;-46
2023/01/29 04:10:43;;;;;;;7.93;6.07;;;1.60;99.90;;;;;;5053682;28;20029;-45
2023/01/29 04:13:11;;;;;;;5.18;4.68;;;1.60;99.90;;;;;;5053112;28;20033;-46
2023/01/29 04:15:44;;;;;;;9.55;5.70;;;1.60;99.90;;;;;;5053610;28;20029;-48
2023/01/29 04:18:09;;;;;;;6.38;4.72;;;1.60;99.90;;;;;;5053179;28;20029;-47
2023/01/29 04:20:36;;;;;;;5.18;4.68;;;1.60;99.90;;;;;;5052551;28;20025;-49
2023/01/29 04:23:04;;;;;;;6.20;4.65;;;1.50;99.90;;;;;;5052970;28;20174;-46
2023/01/29 04:25:42;;;;;;;5.82;5.32;;;1.50;99.90;;;;;;5035209;28;20078;-47
2023/01/29 04:28:27;;;;;;;9.75;6.80;;;1.50;99.90;;;;;;5052762;28;20021;-46
2023/01/29 04:30:58;;;;;;;7.30;5.82;;;1.50;99.90;;;;;;5053031;28;20029;-47
2023/01/29 04:33:38;;;;;;;7.75;5.95;;;1.50;99.90;;;;;;5052678;28;20060;-50
2023/01/29 04:36:34;;;;;;;6.28;5.68;;;1.50;99.90;;;;;;5052872;28;20074;-51
2023/01/29 04:39:16;;;;;;;8.88;5.97;;;1.50;99.90;;;;;;5052832;28;20021;-47
2023/01/29 04:41:51;;;;;;;7.20;6.00;;;1.50;99.90;;;;;;5034855;28;20054;-49
2023/01/29 04:44:35;;;;;;;6.05;5.55;;;1.50;99.90;;;;;;5052784;28;20087;-46
2023/01/29 04:47:13;;;;;;;6.45;5.20;;;1.40;99.90;;;;;;5034515;28;20052;-48
2023/01/29 04:49:48;;;;;;;8.10;6.00;;;1.30;99.90;;;;;;5052664;28;20029;-46
2023/01/29 04:52:23;;;;;;;5.45;5.05;;;1.30;99.90;;;;;;5034298;28;20025;-46
2023/01/29 04:55:02;;;;;;;8.65;5.70;;;1.20;99.90;;;;;;5052521;28;20113;-50
2023/01/29 04:57:45;;;;;;;6.22;5.50;;;1.20;99.90;;;;;;5033532;28;20028;-47
2023/01/29 05:00:11;;;;;;;6.07;5.40;;;1.20;99.90;;;;;;5052457;28;20082;-46
2023/01/29 05:02:39;;;;;;;10.38;7.22;;;1.30;99.90;;;;;;5052163;28;20029;-47
2023/01/29 05:05:06;;;;;;;6.13;5.50;;;1.40;99.90;;;;;;5052204;28;20407;-47
2023/01/29 05:07:34;;;;;;;6.70;6.03;;;1.40;99.90;;;;;;5034313;28;20115;-45
2023/01/29 05:10:01;;;;;;;8.25;5.75;;;1.40;99.90;;;;;;5052257;28;20025;-46
2023/01/29 05:12:28;;;;;;;6.78;6.07;;;1.40;99.90;;;;;;5033980;28;20487;-46
2023/01/29 05:14:59;;;;;;;12.88;6.93;;;1.50;99.90;;;;;;5034362;28;20024;-45
2023/01/29 05:17:24;;;;;;;7.30;6.60;;;1.50;99.90;;;;;;5051989;28;20029;-49
2023/01/29 05:19:50;;;;;;;7.00;6.40;;;1.50;99.90;;;;;;5052193;28;20081;-42
2023/01/29 05:22:17;;;;;;;10.32;6.05;;;1.50;99.90;;;;;;5051936;28;20396;-46
2023/01/29 05:24:43;;;;;;;9.18;6.63;;;1.50;99.90;;;;;;5052172;28;20044;-48
2023/01/29 05:30:04;;;;;;;6.25;5.65;;;1.50;99.90;;;;;;5051911;28;20050;-50
2023/01/29 05:32:29;;;;;;;6.88;6.20;;;1.50;99.90;;;;;;5051364;28;20128;-47
2023/01/29 05:34:55;;;;;;;6.80;6.13;;;1.50;99.90;;;;;;5051920;28;20063;-49
2023/01/29 05:37:20;;;;;;;6.38;5.43;;;1.50;99.90;;;;;;5034797;28;20021;-44
2023/01/29 05:39:46;;;;;;;6.45;5.80;;;1.40;99.90;;;;;;5052913;28;20476;-46
2023/01/29 05:42:11;;;;;;;8.65;5.88;;;1.50;99.90;;;;;;5051312;28;20087;-48
2023/01/29 05:44:37;;;;;;;7.68;6.82;;;1.40;99.90;;;;;;5033750;28;20108;-45
2023/01/29 05:47:02;;;;;;;8.10;7.00;;;1.40;99.90;;;;;;5051370;28;20035;-47
2023/01/29 05:49:28;;;;;;;6.53;5.90;;;1.40;99.90;;;;;;5033668;28;20021;-47
2023/01/29 05:51:53;;;;;;;7.70;6.30;;;1.40;99.90;;;;;;5050978;28;20392;-48
2023/01/29 05:54:19;;;;;;;7.45;6.78;;;1.50;99.90;;;;;;5051278;28;20028;-49
2023/01/29 05:56:44;;;;;;;7.07;6.47;;;1.40;99.90;;;;;;5051388;28;20498;-48
2023/01/29 05:59:10;;;;;;;7.07;6.35;;;1.40;99.90;;;;;;5051245;28;20104;-47
2023/01/29 06:01:35;;;;;;;7.50;6.78;;;1.40;99.90;;;;;;5051383;28;20025;-48
2023/01/29 06:04:01;;;;;;;7.00;6.35;;;1.40;99.90;;;;;;5051168;28;20025;-45
2023/01/29 06:06:26;;;;;;;6.28;5.35;;;1.40;99.90;;;;;;5051163;28;20025;-47
2023/01/29 06:08:52;;;;;;;5.57;5.07;;;1.40;99.90;;;;;;5050338;28;20504;-49
2023/01/29 06:11:17;;;;;;;8.05;6.43;;;1.40;99.90;;;;;;5050736;28;20061;-48
2023/01/29 06:13:44;;;;;;;6.95;6.25;;;1.40;99.90;;;;;;5051159;28;20024;-45
2023/01/29 06:16:11;;;;;;;7.57;6.50;;;1.30;99.90;;;;;;5051322;28;20534;-48
2023/01/29 06:18:37;;;;;;;7.72;6.78;;;1.30;99.90;;;;;;5046547;23;20037;-52
2023/01/29 06:21:05;;;;;;;12.20;6.40;;;1.30;99.90;;;;;;5051354;28;20013;-53
2023/01/29 06:23:31;;;;;;;10.50;6.10;;;1.30;99.90;;;;;;5033091;28;20078;-53
2023/01/29 06:26:01;;;;;;;9.30;6.82;;;1.30;99.90;;;;;;5051623;28;20039;-55
2023/01/29 06:28:27;;;;;;;7.05;5.95;;;1.30;99.90;;;;;;5050763;28;20305;-50
2023/01/29 06:30:52;;;;;;;7.82;6.20;;;1.30;99.90;;;;;;5051510;28;20044;-46
2023/01/29 06:33:18;;;;;;;6.68;5.90;;;1.30;99.90;;;;;;5050769;28;20073;-51
2023/01/29 06:35:43;;;;;;;10.20;6.65;;;1.30;99.90;;;;;;5050808;28;20025;-53
2023/01/29 06:38:08;;;;;;;6.63;5.82;;;1.30;99.90;;;;;;5050973;28;20029;-54
2023/01/29 06:40:34;;;;;;;5.85;5.30;;;1.40;99.90;;;;;;5033209;28;20029;-51
2023/01/29 06:43:00;;;;;;;6.82;6.22;;;1.40;99.90;;;;;;5050338;28;20033;-52
2023/01/29 06:45:25;;;;;;;7.20;6.60;;;1.30;99.90;;;;;;5051052;28;20025;-53
2023/01/29 06:47:51;;;;;;;9.68;6.45;;;1.30;99.90;;;;;;5050817;28;20099;-50
2023/01/29 06:50:17;;;;;;;7.53;6.80;;;1.20;99.90;;;;;;5051000;28;20423;-50
2023/01/29 06:52:42;;;;;;;10.68;7.20;;;1.10;99.90;;;;;;5050658;28;20029;-52
2023/01/29 06:55:08;;;;;;;8.18;7.05;;;1.10;99.90;;;;;;5051013;28;20029;-54
2023/01/29 06:57:34;;;;;;;11.27;7.28;;;1.10;99.90;;;;;;5050530;28;20025;-50
2023/01/29 06:59:59;;;;;;;6.97;6.38;;;1.10;99.90;;;;;;5051004;28;20393;-47
2023/01/29 07:02:25;;;;;;;7.55;6.72;;;1.10;99.90;;;;;;5032749;28;20028;-50
2023/01/29 07:04:50;;;;;;;8.32;6.88;;;1.10;99.90;;;;;;5050867;28;20035;-51
2023/01/29 07:07:16;;;;;;;8.30;6.95;;;1.10;99.90;;;;;;5050752;28;20025;-49
2023/01/29 07:09:42;;;;;;;8.35;7.20;;;1.20;99.90;;;;;;5050681;28;20029;-50
2023/01/29 07:12:11;;;;;;;9.50;8.23;;;1.20;99.90;;;;;;5050518;28;20044;-52
2023/01/29 07:14:36;;;;;;;8.65;7.68;;;1.20;99.90;;;;;;5050821;28;20029;-50
2023/01/29 07:17:02;;;;;;;10.93;7.95;;;1.20;99.90;;;;;;5050787;28;20024;-48
2023/01/29 07:19:28;;;;;;;8.63;7.53;;;1.20;99.90;;;;;;5050845;28;20124;-46
2023/01/29 07:21:54;;;;;;;11.98;8.57;;;1.20;99.90;;;;;;5054379;28;20025;-49
2023/01/29 07:24:20;;;;;;;11.60;8.48;;;1.20;99.90;;;;;;5054253;28;20021;-49
2023/01/29 07:26:45;;;;;;;11.80;8.23;;;1.30;99.90;;;;;;5054511;28;20059;-54
2023/01/29 07:29:11;;;;;;;12.90;9.02;;;1.30;99.90;;;;;;5036746;28;20116;-50
2023/01/29 07:31:36;;;;;;;10.75;8.77;;;1.30;99.90;;;;;;5054521;28;20021;-52
2023/01/29 07:34:05;;;;;;;13.98;11.68;;;1.30;99.90;;;;;;5054512;28;20021;-50
2023/01/29 07:36:30;;;;;;;11.88;9.48;;;1.30;99.90;;;;;;5054505;28;20021;-53
2023/01/29 07:38:56;;;;;;;13.32;10.60;;;1.30;99.90;;;;;;5053848;28;20430;-48
2023/01/29 07:41:21;;;;;;;14.10;9.63;;;1.30;99.90;;;;;;5054204;28;20427;-50
2023/01/29 07:43:47;;;;;;;14.38;11.38;;;1.20;99.90;;;;;;5053793;28;20021;-50
2023/01/29 07:46:13;;;;;;;14.45;10.32;;;1.20;99.90;;;;;;5054444;28;20066;-50
2023/01/29 07:48:38;;;;;;;14.63;10.02;;;1.20;99.90;;;;;;5053845;28;20060;-51
2023/01/29 07:51:04;;;;;;;13.88;11.32;;;1.20;99.90;;;;;;5053827;28;20379;-49
2023/01/29 07:53:30;;;;;;;12.50;9.73;;;1.20;99.90;;;;;;5053609;28;20095;-52
2023/01/29 07:55:56;;;;;;;13.95;10.15;;;1.30;99.90;;;;;;5053931;28;20104;-48
2023/01/29 07:58:22;;;;;;;16.77;10.38;;;1.30;99.90;;;;;;5053646;28;20029;-47
2023/01/29 08:00:47;;;;;;;15.35;10.93;;;1.40;99.90;;;;;;5053926;28;20092;-47
2023/01/29 08:03:16;;;;;;;14.50;10.98;;;1.30;99.90;;;;;;5053507;28;20052;-47
2023/01/29 08:05:43;;;;;;;15.10;11.77;;;1.30;99.90;;;;;;5053707;28;20036;-47
2023/01/29 08:08:09;;;;;;;13.13;10.48;;;1.30;99.90;;;;;;5053814;28;20033;-47
2023/01/29 08:10:35;;;;;;;11.73;9.68;;;1.50;99.90;;;;;;5053917;28;20067;-49
2023/01/29 08:13:02;;;;;;;16.55;10.85;;;1.60;99.90;;;;;;5052954;28;20037;-54
2023/01/29 08:15:27;;;;;;;17.45;11.57;;;1.80;99.90;;;;;;5053087;28;20035;-49
2023/01/29 08:17:53;;;;;;;15.65;11.32;;;1.80;99.90;;;;;;5053351;28;20119;-52
2023/01/29 08:20:19;;;;;;;12.57;10.55;;;1.80;99.90;;;;;;5053581;28;20446;-52
2023/01/29 08:22:45;;;;;;;17.98;11.02;;;1.80;99.90;;;;;;5053275;28;20025;-50
2023/01/29 08:25:11;;;;;;;17.05;10.88;;;1.90;99.90;;;;;;5053456;28;20079;-48
2023/01/29 08:27:36;;;;;;;15.38;10.18;;;2.10;99.90;;;;;;5053745;28;20036;-49
2023/01/29 08:30:03;;;;;;;14.20;10.55;;;2.10;99.90;;;;;;5053324;28;20032;-45
2023/01/29 08:32:28;;;;;;;20.70;9.75;;;2.00;99.90;;;;;;5050979;28;20029;-49
2023/01/29 08:34:54;;;;;;;12.38;10.20;;;2.10;99.90;;;;;;5051837;28;20092;-49
2023/01/29 08:37:19;;;;;;;14.25;11.15;;;2.20;99.90;;;;;;5053533;28;20404;-53
2023/01/29 08:39:45;;;;;;;13.45;11.32;;;2.30;99.90;;;;;;5053906;28;20028;-51
2023/01/29 08:42:10;;;;;;;14.48;10.57;;;2.40;99.90;;;;;;5053052;28;20115;-49
2023/01/29 08:44:36;;;;;;;14.43;9.85;;;2.60;99.90;;;;;;5053115;28;20064;-54
2023/01/29 08:47:01;;;;;;;13.07;9.75;;;2.70;99.90;;;;;;5034770;28;20470;-50
2023/01/29 08:49:27;;;;;;;12.23;9.25;;;2.60;99.90;;;;;;5052942;28;20039;-50
2023/01/29 08:51:55;;;;;;;13.00;9.63;;;2.60;99.90;;;;;;5053105;28;20391;-52
2023/01/29 08:54:21;;;;;;;11.55;8.75;;;2.60;99.90;;;;;;5052859;28;20029;-52
2023/01/29 08:56:47;;;;;;;14.73;10.85;;;2.50;99.90;;;;;;5052931;28;20090;-50
2023/01/29 08:59:12;;;;;;;13.63;10.10;;;2.60;99.90;;;;;;5052464;28;20426;-56
2023/01/29 09:01:38;;;;;;;13.45;10.57;;;2.70;99.90;;;;;;5052607;28;20557;-52
2023/01/29 09:04:04;;;;;;;12.02;9.63;;;2.60;99.90;;;;;;5051834;28;20017;-59
2023/01/29 09:06:29;;;;;;;13.77;9.70;;;2.70;99.90;;;;;;5045937;28;20040;-53
2023/01/29 09:08:55;;;;;;;12.93;9.75;;;2.70;99.90;;;;;;5043125;28;20034;-48
2023/01/29 09:11:20;;;;;;;11.68;9.82;;;2.70;99.90;;;;;;5042867;28;20458;-48
2023/01/29 09:13:46;;;;;;;12.35;9.48;;;2.70;99.90;;;;;;5018542;28;20377;-53
2023/01/29 09:16:11;;;;;;;14.50;10.77;;;2.50;99.90;;;;;;5042573;28;20028;-50
2023/01/29 09:18:37;;;;;;;12.55;10.05;;;2.50;99.90;;;;;;5049535;28;20119;-52
2023/01/29 09:21:03;;;;;;;12.05;9.38;;;2.50;99.90;;;;;;5029462;28;20040;-45
2023/01/29 09:23:29;;;;;;;14.95;10.38;;;2.30;99.90;;;;;;5051912;28;20104;-50
2023/01/29 09:25:55;;;;;;;12.18;9.65;;;2.30;99.90;;;;;;5044066;28;20385;-53
2023/01/29 09:28:21;;;;;;;10.18;8.88;;;2.40;99.90;;;;;;5031930;28;20130;-48
2023/01/29 09:30:47;;;;;;;11.25;9.23;;;2.30;99.90;;;;;;5032009;28;20049;-47
2023/01/29 09:33:12;;;;;;;16.58;10.23;;;2.20;99.90;;;;;;5013774;28;20030;-47
2023/01/29 09:35:42;;;;;;;12.18;9.20;;;2.10;99.90;;;;;;5031984;28;20075;-53
2023/01/29 09:38:10;;;;;;;13.25;9.18;;;2.10;99.90;;;;;;5040153;28;20082;-50
2023/01/29 09:40:52;;;;;;;13.20;10.25;;;2.10;99.90;;;;;;5034063;28;20021;-50
2023/01/29 09:43:38;;;;;;;12.70;9.20;;;2.20;99.90;;;;;;5045272;28;20087;-49
2023/01/29 09:46:13;;;;;;;11.23;9.07;;;2.20;99.90;;;;;;5031772;28;20252;-49
2023/01/29 09:48:40;;;;;;;11.10;9.02;;;2.30;99.90;;;;;;5031730;28;20116;-50
2023/01/29 09:51:14;;;;;;;11.85;9.38;;;2.30;99.90;;;;;;5032093;28;20025;-50
2023/01/29 09:53:46;;;;;;;12.68;8.93;;;2.20;99.90;;;;;;5027510;28;20021;-49
2023/01/29 09:56:15;;;;;;;11.65;7.65;;;2.10;99.90;;;;;;5052641;28;20021;-53
2023/01/29 09:58:42;;;;;;;11.50;9.23;;;2.00;99.90;;;;;;5034455;28;20562;-53
2023/01/29 10:01:32;;;;;;;10.55;8.63;;;1.90;99.90;;;;;;5051720;28;20036;-51
2023/01/29 10:04:19;;;;;;;11.02;8.57;;;2.00;99.90;;;;;;5051204;28;20025;-51
2023/01/29 10:07:18;;;;;;;14.23;8.80;;;2.00;99.90;;;;;;5048918;28;20442;-52
2023/01/29 10:09:56;;;;;;;11.85;8.27;;;2.00;99.90;;;;;;5031480;28;20034;-49
2023/01/29 10:12:38;;;;;;;11.23;7.70;;;2.00;99.90;;;;;;5031211;28;20538;-50
2023/01/29 10:15:38;;;;;;;11.15;8.77;;;1.90;99.90;;;;;;5037676;28;20028;-53
2023/01/29 10:18:27;;;;;;;12.85;8.43;;;2.00;99.90;;;;;;5037589;28;20128;-50
2023/01/29 10:21:29;;;;;;;11.50;8.77;;;2.00;99.90;;;;;;5024379;28;20476;-51
2023/01/29 10:24:10;;;;;;;12.63;8.50;;;2.10;99.90;;;;;;5045663;28;20026;-51
2023/01/29 10:26:36;;;;;;;12.93;8.52;;;2.10;99.90;;;;;;5031413;28;20121;-49
2023/01/29 10:29:05;;;;;;;12.95;9.25;;;2.00;99.90;;;;;;5031104;28;20032;-52
2023/01/29 10:31:37;;;;;;;11.50;9.45;;;2.20;99.90;;;;;;5031211;28;20032;-48
2023/01/29 10:34:11;;;;;;;12.27;8.60;;;2.30;99.90;;;;;;5047014;28;20507;-50
2023/01/29 10:36:46;;;;;;;8.80;7.90;;;2.50;99.90;;;;;;5041964;28;20117;-48
2023/01/29 10:39:17;;;;;;;13.25;8.70;;;2.40;99.90;;;;;;5014050;28;20021;-44
2023/01/29 10:42:14;;;;;;;9.60;8.52;;;2.30;99.90;;;;;;5035650;28;20025;-50
2023/01/29 10:45:03;;;;;;;15.45;8.52;;;2.30;99.90;;;;;;5032401;28;20095;-51
2023/01/29 10:47:39;;;;;;;11.25;9.05;;;2.40;99.90;;;;;;5043383;28;20024;-48
2023/01/29 10:50:39;;;;;;;13.23;8.77;;;2.30;99.90;;;;;;5038244;28;20400;-51
2023/01/29 10:53:17;;;;;;;10.57;8.27;;;2.30;99.90;;;;;;5031836;28;20029;-53
2023/01/29 10:55:56;;;;;;;9.20;7.95;;;2.30;99.90;;;;;;5039886;28;20032;-53
2023/01/29 10:58:42;;;;;;;9.27;8.18;;;2.30;99.90;;;;;;5042633;28;20025;-48
2023/01/29 11:01:11;;;;;;;9.45;7.75;;;2.30;99.90;;;;;;5035887;28;20365;-49
2023/01/29 11:03:37;;;;;;;14.60;8.25;;;2.30;99.90;;;;;;5045058;28;20170;-50
2023/01/29 11:06:24;;;;;;;10.95;8.50;;;2.30;99.90;;;;;;5052205;28;20060;-50
2023/01/29 11:09:00;;;;;;;9.00;7.65;;;2.50;99.90;;;;;;5052924;28;20090;-49
2023/01/29 11:11:38;;;;;;;9.98;7.55;;;2.60;99.90;;;;;;5045228;28;20024;-51
2023/01/29 11:14:13;;;;;;;9.98;8.07;;;2.60;99.90;;;;;;5042447;28;20389;-49
2023/01/29 11:16:44;;;;;;;;;;;2.80;99.90;;;;;;5034933;28;20033;-55
2023/01/29 11:19:10;;;;;;;10.57;8.30;;;2.90;99.90;;;;;;5038011;28;19912;-53
2023/01/29 11:22:13;;;;;;;11.63;7.70;;;2.80;99.90;;;;;;5052542;28;20028;-58
2023/01/29 11:24:38;;;;;;;8.70;7.38;;;2.70;99.90;;;;;;4953956;29;20035;-58
2023/01/29 11:27:34;;;;;;;10.05;7.72;;;2.80;99.90;;;;;;5002350;28;20036;-60
2023/01/29 11:30:00;;;;;;;8.63;7.43;;;2.90;99.90;;;;;;5035768;28;20476;-57
2023/01/29 11:32:29;;;;;;;9.77;7.40;;;3.10;99.90;;;;;;5034584;28;20087;-58
2023/01/29 11:35:15;;;;;;;9.10;7.22;;;3.00;99.90;;;;;;5045374;28;20025;-55
2023/01/29 11:37:45;;;;;;;9.13;7.47;;;2.90;99.90;;;;;;5038431;28;20030;-61
2023/01/29 11:40:17;;;;;;;9.18;6.85;;;2.90;99.90;;;;;;5049972;28;20021;-57
2023/01/29 11:42:43;;;;;;;8.98;7.50;;;3.00;99.90;;;;;;5048628;28;20108;-60
2023/01/29 11:45:26;;;;;;;6.90;6.20;;;2.90;99.90;;;;;;5054669;28;20032;-60
2023/01/29 11:47:53;;;;;;;7.57;6.45;;;2.90;99.90;;;;;;5054090;28;20029;-62
2023/01/29 11:50:29;;;;;;;7.88;6.57;;;2.80;99.90;;;;;;5036647;28;20120;-62
2023/01/29 11:52:55;;;;;;;7.55;6.65;;;2.80;99.90;;;;;;5036119;28;20034;-58
2023/01/29 11:55:32;;;;;;;9.32;7.55;;;2.70;99.90;;;;;;5041249;28;20082;-62
2023/01/29 11:58:03;;;;;;;7.32;6.63;;;2.60;99.90;;;;;;5045104;28;20029;-58
2023/01/29 12:00:34;;;;;;;7.72;6.80;;;2.60;99.90;;;;;;5018599;28;20132;-57
2023/01/29 12:03:20;;;;;;;13.90;7.93;;;2.70;99.90;;;;;;5022066;28;20037;-55
2023/01/29 12:06:02;;;;;;;7.13;6.40;;;2.80;99.90;;;;;;5046902;28;20029;-57
2023/01/29 12:08:38;;;;;;;7.38;6.30;;;2.80;99.90;;;;;;5045895;28;20411;-55
2023/01/29 12:11:14;;;;;;;8.25;6.95;;;2.70;99.90;;;;;;5030738;28;20025;-58
2023/01/29 12:13:43;;;;;;;11.10;6.72;;;2.70;99.90;;;;;;5041069;28;20061;-60
2023/01/29 12:16:49;;;;;;;11.65;6.85;;;2.70;99.90;;;;;;5047581;28;20025;-56
2023/01/29 12:19:20;;;;;;;8.45;6.93;;;2.70;99.90;;;;;;5051025;28;20032;-58
2023/01/29 12:21:52;;;;;;;8.45;7.10;;;2.70;99.90;;;;;;5032809;28;20033;-57
2023/01/29 12:24:39;;;;;;;9.98;7.40;;;2.80;99.90;;;;;;5046672;28;20037;-57
2023/01/29 12:27:23;;;;;;;8.75;7.60;;;2.70;99.90;;;;;;5029229;28;20108;-60
2023/01/29 12:30:06;;;;;;;9.25;7.28;;;2.60;99.90;;;;;;5053001;28;20055;-56
2023/01/29 12:32:55;;;;;;;8.55;7.40;;;2.60;99.90;;;;;;5044656;28;20057;-59
2023/01/29 12:35:43;;;;;;;12.85;8.07;;;2.50;99.90;;;;;;5032734;28;20085;-62
2023/01/29 12:38:19;;;;;;;12.77;7.55;;;2.50;99.90;;;;;;5049241;28;20094;-59
2023/01/29 12:41:27;;;;;;;7.82;6.95;;;2.50;99.90;;;;;;5034549;28;20021;-63
2023/01/29 12:43:56;;;;;;;7.25;6.10;;;2.50;99.90;;;;;;5047772;28;20120;-58
2023/01/29 12:46:29;;;;;;;8.30;6.72;;;2.40;99.90;;;;;;5033639;28;20021;-54
2023/01/29 12:49:00;;;;;;;11.85;7.18;;;2.50;99.90;;;;;;5040486;28;20120;-53
2023/01/29 12:51:32;;;;;;;8.57;7.50;;;2.60;99.90;;;;;;5049575;28;20037;-61
2023/01/29 12:54:08;;;;;;;8.80;7.20;;;2.70;99.90;;;;;;5032555;28;20042;-63
2023/01/29 12:56:56;;;;;;;7.82;6.53;;;2.80;99.90;;;;;;5033921;28;20052;-60
2023/01/29 12:59:55;;;;;;;9.20;6.80;;;2.80;99.90;;;;;;5050444;28;20025;-59
2023/01/29 13:02:35;;;;;;;7.20;6.47;;;2.60;99.90;;;;;;5020546;28;20040;-56
2023/01/29 13:05:25;;;;;;;7.82;5.95;;;2.70;99.90;;;;;;5050159;28;20021;-61
2023/01/29 13:07:57;;;;;;;7.60;6.80;;;2.60;99.90;;;;;;5031583;28;20104;-58
2023/01/29 13:10:29;;;;;;;8.50;6.75;;;2.60;99.90;;;;;;5023884;28;20079;-56
2023/01/29 13:13:01;;;;;;;6.85;6.15;;;2.50;99.90;;;;;;5050671;28;20029;-57
2023/01/29 13:15:35;;;;;;;8.25;6.32;;;2.50;99.90;;;;;;5047672;28;20358;-62
2023/01/29 13:18:40;;;;;;;7.93;6.93;;;2.50;99.90;;;;;;5051251;28;20519;-61
2023/01/29 13:21:28;;;;;;;10.38;7.63;;;2.50;99.90;;;;;;5045177;28;20036;-61
2023/01/29 13:24:10;;;;;;;9.93;7.20;;;2.50;99.90;;;;;;5013346;28;20404;-60
2023/01/29 13:26:36;;;;;;;17.88;8.75;;;2.60;99.90;;;;;;5014123;28;20026;-56
2023/01/29 13:29:04;;;;;;;8.85;6.97;;;2.60;99.90;;;;;;5031322;28;20392;-55
2023/01/29 13:31:40;;;;;;;10.63;7.30;;;2.60;99.90;;;;;;5035230;28;20028;-58
2023/01/29 13:34:20;;;;;;;10.40;7.45;;;2.60;99.90;;;;;;5044436;28;20041;-58
2023/01/29 13:36:55;;;;;;;14.00;7.20;;;2.60;99.90;;;;;;5020475;28;20035;-56
2023/01/29 13:39:34;;;;;;;9.57;6.85;;;2.60;99.90;;;;;;5046674;28;20273;-52
2023/01/29 13:42:13;;;;;;;7.70;6.40;;;2.50;99.90;;;;;;5031487;28;20030;-58
2023/01/29 13:44:39;;;;;;;6.90;6.20;;;2.50;99.90;;;;;;5033970;28;20400;-54
2023/01/29 13:47:09;;;;;;;7.97;6.38;;;2.30;99.90;;;;;;5050797;28;20480;-58
2023/01/29 13:49:44;;;;;;;10.27;7.22;;;2.30;99.90;;;;;;5053478;28;20032;-56